sensor_id;sensor_type;location;lat;lon;timestamp;temperature;humidity
18339;DHT22;9295;44.484;11.240;2023-06-22T00:01:31;24.90;99.90
18339;DHT22;9295;44.484;11.240;2023-06-22T00:04:00;24.90;99.90
18339;DHT22;9295;44.484;11.240;2023-06-22T00:06:28;24.90;99.90
18339;DHT22;9295;44.484;11.240;2023-06-22T00:08:57;24.80;99.90
18339;DHT22;9295;44.484;11.240;2023-06-22T00:11:25;24.80;99.90
18339;DHT22;9295;44.484;11.240;2023-06-22T00:13:56;24.70;99.90
18339;DHT22;9295;44.484;11.240;2023-06-22T00:16:25;24.80;99.90
18339;DHT22;9295;44.484;11.240;2023-06-22T00:18:53;24.80;99.90
18339;DHT22;9295;44.484;11.240;2023-06-22T00:21:22;24.80;99.90
18339;DHT22;9295;44.484;11.240;2023-06-22T00:23:51;24.80;99.90
18339;DHT22;9295;44.484;11.240;2023-06-22T00:26:20;24.70;99.90
18339;DHT22;9295;44.484;11.240;2023-06-22T00:28:49;24.60;99.90
18339;DHT22;9295;44.484;11.240;2023-06-22T00:31:19;24.60;99.90
18339;DHT22;9295;44.484;11.240;2023-06-22T00:33:48;24.60;99.90
18339;DHT22;9295;44.484;11.240;2023-06-22T00:36:17;24.50;99.90
18339;DHT22;9295;44.484;11.240;2023-06-22T00:38:46;24.50;99.90
18339;DHT22;9295;44.484;11.240;2023-06-22T00:41:17;24.50;99.90
18339;DHT22;9295;44.484;11.240;2023-06-22T00:43:46;24.50;99.90
18339;DHT22;9295;44.484;11.240;2023-06-22T00:46:15;24.30;99.90
18339;DHT22;9295;44.484;11.240;2023-06-22T00:48:45;24.30;99.90
18339;DHT22;9295;44.484;11.240;2023-06-22T00:51:13;24.30;99.90
18339;DHT22;9295;44.484;11.240;2023-06-22T00:53:42;24.20;99.90
18339;DHT22;9295;44.484;11.240;2023-06-22T00:56:11;24.20;99.90
18339;DHT22;9295;44.484;11.240;2023-06-22T00:58:40;24.10;99.90
18339;DHT22;9295;44.484;11.240;2023-06-22T01:01:09;24.00;99.90
18339;DHT22;9295;44.484;11.240;2023-06-22T01:03:37;23.90;99.90
18339;DHT22;9295;44.484;11.240;2023-06-22T01:06:10;23.80;99.90
18339;DHT22;9295;44.484;11.240;2023-06-22T01:08:46;23.80;99.90
18339;DHT22;9295;44.484;11.240;2023-06-22T01:11:23;24.00;99.90
18339;DHT22;9295;44.484;11.240;2023-06-22T01:13:57;24.10;99.90
18339;DHT22;9295;44.484;11.240;2023-06-22T01:16:30;24.10;99.90
18339;DHT22;9295;44.484;11.240;2023-06-22T01:19:03;24.10;99.90
18339;DHT22;9295;44.484;11.240;2023-06-22T01:21:37;24.10;99.90
18339;DHT22;9295;44.484;11.240;2023-06-22T01:24:16;24.10;99.90
18339;DHT22;9295;44.484;11.240;2023-06-22T01:26:57;24.20;99.90
18339;DHT22;9295;44.484;11.240;2023-06-22T01:29:29;24.10;99.90
18339;DHT22;9295;44.484;11.240;2023-06-22T01:31:59;24.00;99.90
18339;DHT22;9295;44.484;11.240;2023-06-22T01:34:31;24.00;99.90
18339;DHT22;9295;44.484;11.240;2023-06-22T01:37:03;23.90;99.90
18339;DHT22;9295;44.484;11.240;2023-06-22T01:39:32;23.90;99.90
18339;DHT22;9295;44.484;11.240;2023-06-22T01:42:02;23.90;99.90
18339;DHT22;9295;44.484;11.240;2023-06-22T01:44:34;23.90;99.90
18339;DHT22;9295;44.484;11.240;2023-06-22T01:47:03;23.90;99.90
18339;DHT22;9295;44.484;11.240;2023-06-22T01:49:32;23.90;99.90
18339;DHT22;9295;44.484;11.240;2023-06-22T01:52:01;23.90;99.90
18339;DHT22;9295;44.484;11.240;2023-06-22T01:54:29;23.90;99.90
18339;DHT22;9295;44.484;11.240;2023-06-22T01:56:58;23.90;99.90
18339;DHT22;9295;44.484;11.240;2023-06-22T01:59:31;23.90;99.90
18339;DHT22;9295;44.484;11.240;2023-06-22T02:02:06;23.90;99.90
18339;DHT22;9295;44.484;11.240;2023-06-22T02:04:39;23.90;99.90
18339;DHT22;9295;44.484;11.240;2023-06-22T02:07:15;23.90;99.90
18339;DHT22;9295;44.484;11.240;2023-06-22T02:09:47;23.90;99.90
18339;DHT22;9295;44.484;11.240;2023-06-22T02:12:18;23.90;99.90
18339;DHT22;9295;44.484;11.240;2023-06-22T02:14:47;23.90;99.90
18339;DHT22;9295;44.484;11.240;2023-06-22T02:17:18;23.90;99.90
18339;DHT22;9295;44.484;11.240;2023-06-22T02:19:46;23.70;99.90
18339;DHT22;9295;44.484;11.240;2023-06-22T02:22:15;23.70;99.90
18339;DHT22;9295;44.484;11.240;2023-06-22T02:24:44;23.60;99.90
18339;DHT22;9295;44.484;11.240;2023-06-22T02:27:12;23.50;99.90
18339;DHT22;9295;44.484;11.240;2023-06-22T02:29:41;23.50;99.90
18339;DHT22;9295;44.484;11.240;2023-06-22T02:32:09;23.40;99.90
18339;DHT22;9295;44.484;11.240;2023-06-22T02:34:40;23.40;99.90
18339;DHT22;9295;44.484;11.240;2023-06-22T02:37:10;23.30;99.90
18339;DHT22;9295;44.484;11.240;2023-06-22T02:39:40;23.30;99.90
18339;DHT22;9295;44.484;11.240;2023-06-22T02:42:08;23.30;99.90
18339;DHT22;9295;44.484;11.240;2023-06-22T02:44:38;23.30;99.90
18339;DHT22;9295;44.484;11.240;2023-06-22T02:47:07;23.30;99.90
18339;DHT22;9295;44.484;11.240;2023-06-22T02:49:37;23.30;99.90
18339;DHT22;9295;44.484;11.240;2023-06-22T02:52:07;23.20;99.90
18339;DHT22;9295;44.484;11.240;2023-06-22T02:54:38;23.20;99.90
18339;DHT22;9295;44.484;11.240;2023-06-22T02:57:07;23.10;99.90
18339;DHT22;9295;44.484;11.240;2023-06-22T02:59:42;23.00;99.90
18339;DHT22;9295;44.484;11.240;2023-06-22T03:02:12;23.00;99.90
18339;DHT22;9295;44.484;11.240;2023-06-22T03:04:42;22.90;99.90
18339;DHT22;9295;44.484;11.240;2023-06-22T03:07:13;22.90;99.90
18339;DHT22;9295;44.484;11.240;2023-06-22T03:09:41;22.90;99.90
18339;DHT22;9295;44.484;11.240;2023-06-22T03:12:10;22.90;99.90
18339;DHT22;9295;44.484;11.240;2023-06-22T03:14:49;22.90;99.90
18339;DHT22;9295;44.484;11.240;2023-06-22T03:17:18;22.90;99.90
18339;DHT22;9295;44.484;11.240;2023-06-22T03:19:46;22.90;99.90
18339;DHT22;9295;44.484;11.240;2023-06-22T03:22:16;22.80;99.90
18339;DHT22;9295;44.484;11.240;2023-06-22T03:24:45;22.80;99.90
18339;DHT22;9295;44.484;11.240;2023-06-22T03:27:15;22.80;99.90
18339;DHT22;9295;44.484;11.240;2023-06-22T03:29:43;22.70;99.90
18339;DHT22;9295;44.484;11.240;2023-06-22T03:32:12;22.70;99.90
18339;DHT22;9295;44.484;11.240;2023-06-22T03:34:40;22.60;99.90
18339;DHT22;9295;44.484;11.240;2023-06-22T03:37:15;22.60;99.90
18339;DHT22;9295;44.484;11.240;2023-06-22T03:39:45;22.50;99.90
18339;DHT22;9295;44.484;11.240;2023-06-22T03:42:16;22.50;99.90
18339;DHT22;9295;44.484;11.240;2023-06-22T03:44:46;22.40;99.90
18339;DHT22;9295;44.484;11.240;2023-06-22T03:47:15;22.40;99.90
18339;DHT22;9295;44.484;11.240;2023-06-22T03:49:43;22.50;99.90
18339;DHT22;9295;44.484;11.240;2023-06-22T03:52:12;22.60;99.90
18339;DHT22;9295;44.484;11.240;2023-06-22T03:54:42;22.70;99.90
18339;DHT22;9295;44.484;11.240;2023-06-22T03:57:10;22.70;99.90
18339;DHT22;9295;44.484;11.240;2023-06-22T03:59:39;22.80;99.90
18339;DHT22;9295;44.484;11.240;2023-06-22T04:02:08;22.90;99.90
18339;DHT22;9295;44.484;11.240;2023-06-22T04:04:36;22.90;99.90
18339;DHT22;9295;44.484;11.240;2023-06-22T04:07:07;22.90;99.90
18339;DHT22;9295;44.484;11.240;2023-06-22T04:09:35;23.00;99.90
18339;DHT22;9295;44.484;11.240;2023-06-22T04:12:07;23.10;99.90
18339;DHT22;9295;44.484;11.240;2023-06-22T04:14:35;23.10;99.90
18339;DHT22;9295;44.484;11.240;2023-06-22T04:17:04;23.20;99.90
18339;DHT22;9295;44.484;11.240;2023-06-22T04:19:33;23.30;99.90
18339;DHT22;9295;44.484;11.240;2023-06-22T04:22:01;23.40;99.90
18339;DHT22;9295;44.484;11.240;2023-06-22T04:24:30;23.50;99.90
18339;DHT22;9295;44.484;11.240;2023-06-22T04:26:59;23.70;99.90
18339;DHT22;9295;44.484;11.240;2023-06-22T04:29:31;23.90;99.90
18339;DHT22;9295;44.484;11.240;2023-06-22T04:32:00;24.10;99.90
18339;DHT22;9295;44.484;11.240;2023-06-22T04:34:30;24.30;99.90
18339;DHT22;9295;44.484;11.240;2023-06-22T04:36:59;24.50;99.90
18339;DHT22;9295;44.484;11.240;2023-06-22T04:39:27;24.60;99.90
18339;DHT22;9295;44.484;11.240;2023-06-22T04:41:56;24.80;99.90
18339;DHT22;9295;44.484;11.240;2023-06-22T04:44:28;25.00;99.90
18339;DHT22;9295;44.484;11.240;2023-06-22T04:46:59;25.20;99.90
18339;DHT22;9295;44.484;11.240;2023-06-22T04:49:30;25.50;99.90
18339;DHT22;9295;44.484;11.240;2023-06-22T04:52:03;25.70;99.90
18339;DHT22;9295;44.484;11.240;2023-06-22T04:54:33;26.20;99.90
18339;DHT22;9295;44.484;11.240;2023-06-22T04:57:03;26.60;99.90
18339;DHT22;9295;44.484;11.240;2023-06-22T04:59:32;26.90;99.90
18339;DHT22;9295;44.484;11.240;2023-06-22T05:02:02;26.50;99.90
18339;DHT22;9295;44.484;11.240;2023-06-22T05:04:31;26.20;99.90
18339;DHT22;9295;44.484;11.240;2023-06-22T05:07:01;26.00;99.90
18339;DHT22;9295;44.484;11.240;2023-06-22T05:09:30;26.00;99.90
18339;DHT22;9295;44.484;11.240;2023-06-22T05:12:01;25.90;99.90
18339;DHT22;9295;44.484;11.240;2023-06-22T05:14:34;25.90;99.90
18339;DHT22;9295;44.484;11.240;2023-06-22T05:17:04;25.90;99.90
18339;DHT22;9295;44.484;11.240;2023-06-22T05:19:42;26.00;99.90
18339;DHT22;9295;44.484;11.240;2023-06-22T05:22:12;26.00;99.90
18339;DHT22;9295;44.484;11.240;2023-06-22T05:24:41;26.20;99.90
18339;DHT22;9295;44.484;11.240;2023-06-22T05:27:09;26.20;99.90
18339;DHT22;9295;44.484;11.240;2023-06-22T05:29:39;26.30;99.90
18339;DHT22;9295;44.484;11.240;2023-06-22T05:32:09;26.40;99.90
18339;DHT22;9295;44.484;11.240;2023-06-22T05:34:39;26.50;99.90
18339;DHT22;9295;44.484;11.240;2023-06-22T05:37:07;26.70;99.90
18339;DHT22;9295;44.484;11.240;2023-06-22T05:39:37;26.80;99.90
18339;DHT22;9295;44.484;11.240;2023-06-22T05:42:07;27.10;99.90
18339;DHT22;9295;44.484;11.240;2023-06-22T05:44:37;27.30;99.90
18339;DHT22;9295;44.484;11.240;2023-06-22T05:47:09;27.50;99.90
18339;DHT22;9295;44.484;11.240;2023-06-22T05:49:38;27.60;99.90
18339;DHT22;9295;44.484;11.240;2023-06-22T05:52:07;27.70;99.90
18339;DHT22;9295;44.484;11.240;2023-06-22T05:54:35;27.90;99.90
18339;DHT22;9295;44.484;11.240;2023-06-22T05:57:06;28.10;99.90
18339;DHT22;9295;44.484;11.240;2023-06-22T05:59:34;28.10;99.90
18339;DHT22;9295;44.484;11.240;2023-06-22T06:02:04;28.10;99.90
18339;DHT22;9295;44.484;11.240;2023-06-22T06:04:34;28.00;99.90
18339;DHT22;9295;44.484;11.240;2023-06-22T06:07:03;27.90;99.90
18339;DHT22;9295;44.484;11.240;2023-06-22T06:09:33;27.80;99.90
18339;DHT22;9295;44.484;11.240;2023-06-22T06:12:03;27.70;99.90
18339;DHT22;9295;44.484;11.240;2023-06-22T06:14:31;27.60;99.90
18339;DHT22;9295;44.484;11.240;2023-06-22T06:17:00;27.60;99.90
18339;DHT22;9295;44.484;11.240;2023-06-22T06:19:29;27.50;99.90
18339;DHT22;9295;44.484;11.240;2023-06-22T06:22:00;27.40;99.90
18339;DHT22;9295;44.484;11.240;2023-06-22T06:24:28;27.40;99.90
18339;DHT22;9295;44.484;11.240;2023-06-22T06:26:57;27.40;99.90
18339;DHT22;9295;44.484;11.240;2023-06-22T06:29:26;27.40;99.90
18339;DHT22;9295;44.484;11.240;2023-06-22T06:31:55;27.50;99.90
18339;DHT22;9295;44.484;11.240;2023-06-22T06:34:24;27.60;99.90
18339;DHT22;9295;44.484;11.240;2023-06-22T06:36:52;27.80;99.90
18339;DHT22;9295;44.484;11.240;2023-06-22T06:39:22;28.10;99.90
18339;DHT22;9295;44.484;11.240;2023-06-22T06:41:52;28.20;99.90
18339;DHT22;9295;44.484;11.240;2023-06-22T06:44:20;28.50;99.90
18339;DHT22;9295;44.484;11.240;2023-06-22T06:46:49;28.70;99.90
18339;DHT22;9295;44.484;11.240;2023-06-22T06:49:18;28.70;99.90
18339;DHT22;9295;44.484;11.240;2023-06-22T06:51:47;29.00;99.90
18339;DHT22;9295;44.484;11.240;2023-06-22T06:54:15;29.10;99.90
18339;DHT22;9295;44.484;11.240;2023-06-22T06:56:49;29.20;99.90
18339;DHT22;9295;44.484;11.240;2023-06-22T06:59:18;29.20;99.90
18339;DHT22;9295;44.484;11.240;2023-06-22T07:01:47;29.30;99.90
18339;DHT22;9295;44.484;11.240;2023-06-22T07:04:16;29.50;99.90
18339;DHT22;9295;44.484;11.240;2023-06-22T07:06:44;29.60;99.90
18339;DHT22;9295;44.484;11.240;2023-06-22T07:09:13;29.90;99.90
18339;DHT22;9295;44.484;11.240;2023-06-22T07:11:46;30.10;99.90
18339;DHT22;9295;44.484;11.240;2023-06-22T07:14:17;30.40;99.90
18339;DHT22;9295;44.484;11.240;2023-06-22T07:16:45;30.50;99.90
18339;DHT22;9295;44.484;11.240;2023-06-22T07:19:14;30.80;99.90
18339;DHT22;9295;44.484;11.240;2023-06-22T07:21:43;31.10;99.90
18339;DHT22;9295;44.484;11.240;2023-06-22T07:24:11;31.50;99.90
18339;DHT22;9295;44.484;11.240;2023-06-22T07:26:40;31.70;99.90
18339;DHT22;9295;44.484;11.240;2023-06-22T07:29:13;32.00;99.90
18339;DHT22;9295;44.484;11.240;2023-06-22T07:31:43;32.10;99.90
18339;DHT22;9295;44.484;11.240;2023-06-22T07:34:12;32.20;99.90
18339;DHT22;9295;44.484;11.240;2023-06-22T07:36:41;32.30;99.90
18339;DHT22;9295;44.484;11.240;2023-06-22T07:39:10;32.30;99.90
18339;DHT22;9295;44.484;11.240;2023-06-22T07:41:39;32.30;99.90
18339;DHT22;9295;44.484;11.240;2023-06-22T07:44:08;32.50;99.90
18339;DHT22;9295;44.484;11.240;2023-06-22T07:46:37;32.60;99.90
18339;DHT22;9295;44.484;11.240;2023-06-22T07:49:07;32.60;99.90
18339;DHT22;9295;44.484;11.240;2023-06-22T07:51:36;32.60;99.90
18339;DHT22;9295;44.484;11.240;2023-06-22T07:54:05;32.80;99.90
18339;DHT22;9295;44.484;11.240;2023-06-22T07:56:34;32.80;99.90
18339;DHT22;9295;44.484;11.240;2023-06-22T07:59:03;32.90;99.90
18339;DHT22;9295;44.484;11.240;2023-06-22T08:01:31;33.00;99.90
18339;DHT22;9295;44.484;11.240;2023-06-22T08:04:00;33.10;99.90
18339;DHT22;9295;44.484;11.240;2023-06-22T08:06:31;33.30;99.90
18339;DHT22;9295;44.484;11.240;2023-06-22T08:09:00;33.10;99.90
18339;DHT22;9295;44.484;11.240;2023-06-22T08:11:29;33.30;99.90
18339;DHT22;9295;44.484;11.240;2023-06-22T08:13:59;33.40;99.90
18339;DHT22;9295;44.484;11.240;2023-06-22T08:16:28;33.50;99.90
18339;DHT22;9295;44.484;11.240;2023-06-22T08:18:58;33.50;99.90
18339;DHT22;9295;44.484;11.240;2023-06-22T08:21:27;33.70;99.90
18339;DHT22;9295;44.484;11.240;2023-06-22T08:23:57;33.90;99.90
18339;DHT22;9295;44.484;11.240;2023-06-22T08:26:26;34.00;99.90
18339;DHT22;9295;44.484;11.240;2023-06-22T08:28:55;34.00;99.90
18339;DHT22;9295;44.484;11.240;2023-06-22T08:31:24;34.10;99.90
18339;DHT22;9295;44.484;11.240;2023-06-22T08:33:52;34.20;99.90
18339;DHT22;9295;44.484;11.240;2023-06-22T08:36:21;34.30;99.90
18339;DHT22;9295;44.484;11.240;2023-06-22T08:38:50;34.40;99.90
18339;DHT22;9295;44.484;11.240;2023-06-22T08:41:20;34.40;99.90
18339;DHT22;9295;44.484;11.240;2023-06-22T08:43:49;34.40;99.90
18339;DHT22;9295;44.484;11.240;2023-06-22T08:46:19;34.40;99.90
18339;DHT22;9295;44.484;11.240;2023-06-22T08:48:50;34.40;99.90
18339;DHT22;9295;44.484;11.240;2023-06-22T08:51:19;34.30;99.90
18339;DHT22;9295;44.484;11.240;2023-06-22T08:53:47;34.30;99.90
18339;DHT22;9295;44.484;11.240;2023-06-22T08:56:16;34.40;99.90
18339;DHT22;9295;44.484;11.240;2023-06-22T08:58:46;34.40;99.90
18339;DHT22;9295;44.484;11.240;2023-06-22T09:01:15;34.50;99.90
18339;DHT22;9295;44.484;11.240;2023-06-22T09:03:44;34.50;99.90
18339;DHT22;9295;44.484;11.240;2023-06-22T09:06:21;34.50;99.50
18339;DHT22;9295;44.484;11.240;2023-06-22T09:08:50;34.50;99.20
18339;DHT22;9295;44.484;11.240;2023-06-22T09:11:18;34.60;98.70
18339;DHT22;9295;44.484;11.240;2023-06-22T09:13:48;34.30;99.30
18339;DHT22;9295;44.484;11.240;2023-06-22T09:16:21;34.30;99.20
18339;DHT22;9295;44.484;11.240;2023-06-22T09:18:49;34.30;97.70
18339;DHT22;9295;44.484;11.240;2023-06-22T09:21:18;34.10;96.90
18339;DHT22;9295;44.484;11.240;2023-06-22T09:23:47;34.10;96.20
18339;DHT22;9295;44.484;11.240;2023-06-22T09:26:18;33.90;94.50
18339;DHT22;9295;44.484;11.240;2023-06-22T09:28:48;33.40;94.90
18339;DHT22;9295;44.484;11.240;2023-06-22T09:31:17;33.50;95.10
18339;DHT22;9295;44.484;11.240;2023-06-22T09:33:53;33.80;95.40
18339;DHT22;9295;44.484;11.240;2023-06-22T09:36:22;34.20;95.70
18339;DHT22;9295;44.484;11.240;2023-06-22T09:38:50;34.40;95.50
18339;DHT22;9295;44.484;11.240;2023-06-22T09:41:23;34.60;95.30
18339;DHT22;9295;44.484;11.240;2023-06-22T09:43:53;34.90;95.00
18339;DHT22;9295;44.484;11.240;2023-06-22T09:46:23;35.00;93.80
18339;DHT22;9295;44.484;11.240;2023-06-22T09:48:52;35.00;93.50
18339;DHT22;9295;44.484;11.240;2023-06-22T09:51:21;34.90;93.30
18339;DHT22;9295;44.484;11.240;2023-06-22T09:53:51;34.80;93.00
18339;DHT22;9295;44.484;11.240;2023-06-22T09:56:21;34.90;93.10
18339;DHT22;9295;44.484;11.240;2023-06-22T09:58:49;34.90;92.60
18339;DHT22;9295;44.484;11.240;2023-06-22T10:01:23;34.90;92.20
18339;DHT22;9295;44.484;11.240;2023-06-22T10:03:53;34.80;91.90
18339;DHT22;9295;44.484;11.240;2023-06-22T10:06:24;34.70;91.10
18339;DHT22;9295;44.484;11.240;2023-06-22T10:08:53;34.70;90.90
18339;DHT22;9295;44.484;11.240;2023-06-22T10:11:21;34.70;90.80
18339;DHT22;9295;44.484;11.240;2023-06-22T10:13:54;34.90;90.90
18339;DHT22;9295;44.484;11.240;2023-06-22T10:16:30;34.90;90.80
18339;DHT22;9295;44.484;11.240;2023-06-22T10:18:59;35.10;90.40
18339;DHT22;9295;44.484;11.240;2023-06-22T10:21:28;35.10;88.60
18339;DHT22;9295;44.484;11.240;2023-06-22T10:23:57;34.90;88.50
18339;DHT22;9295;44.484;11.240;2023-06-22T10:26:26;34.80;89.40
18339;DHT22;9295;44.484;11.240;2023-06-22T10:28:56;34.60;88.50
18339;DHT22;9295;44.484;11.240;2023-06-22T10:31:44;34.50;88.50
18339;DHT22;9295;44.484;11.240;2023-06-22T10:34:13;34.60;88.80
18339;DHT22;9295;44.484;11.240;2023-06-22T10:36:41;34.70;89.70
18339;DHT22;9295;44.484;11.240;2023-06-22T10:39:10;34.80;90.00
18339;DHT22;9295;44.484;11.240;2023-06-22T10:41:38;34.70;89.00
18339;DHT22;9295;44.484;11.240;2023-06-22T10:44:07;34.70;90.40
18339;DHT22;9295;44.484;11.240;2023-06-22T10:46:36;34.70;90.80
18339;DHT22;9295;44.484;11.240;2023-06-22T10:49:06;34.80;90.70
18339;DHT22;9295;44.484;11.240;2023-06-22T10:51:35;34.80;91.10
18339;DHT22;9295;44.484;11.240;2023-06-22T10:54:05;34.90;91.30
18339;DHT22;9295;44.484;11.240;2023-06-22T10:56:35;34.90;91.10
18339;DHT22;9295;44.484;11.240;2023-06-22T10:59:06;34.80;91.30
18339;DHT22;9295;44.484;11.240;2023-06-22T11:01:35;34.60;90.80
18339;DHT22;9295;44.484;11.240;2023-06-22T11:04:05;34.30;91.30
18339;DHT22;9295;44.484;11.240;2023-06-22T11:06:34;34.30;91.50
18339;DHT22;9295;44.484;11.240;2023-06-22T11:09:03;34.30;91.60
18339;DHT22;9295;44.484;11.240;2023-06-22T11:11:51;34.30;91.80
18339;DHT22;9295;44.484;11.240;2023-06-22T11:14:21;34.50;91.70
18339;DHT22;9295;44.484;11.240;2023-06-22T11:16:49;34.70;91.30
18339;DHT22;9295;44.484;11.240;2023-06-22T11:19:19;34.70;91.30
18339;DHT22;9295;44.484;11.240;2023-06-22T11:21:48;34.70;90.80
18339;DHT22;9295;44.484;11.240;2023-06-22T11:24:17;34.80;90.90
18339;DHT22;9295;44.484;11.240;2023-06-22T11:26:46;34.60;89.40
18339;DHT22;9295;44.484;11.240;2023-06-22T11:29:14;34.20;90.60
18339;DHT22;9295;44.484;11.240;2023-06-22T11:32:04;33.70;90.90
18339;DHT22;9295;44.484;11.240;2023-06-22T11:34:34;33.60;91.10
18339;DHT22;9295;44.484;11.240;2023-06-22T11:37:02;33.50;90.80
18339;DHT22;9295;44.484;11.240;2023-06-22T11:39:31;33.40;91.10
18339;DHT22;9295;44.484;11.240;2023-06-22T11:42:09;33.40;91.30
18339;DHT22;9295;44.484;11.240;2023-06-22T11:44:37;33.50;91.00
18339;DHT22;9295;44.484;11.240;2023-06-22T11:47:06;33.60;91.20
18339;DHT22;9295;44.484;11.240;2023-06-22T11:49:36;33.60;90.90
18339;DHT22;9295;44.484;11.240;2023-06-22T11:52:05;33.70;90.80
18339;DHT22;9295;44.484;11.240;2023-06-22T11:54:34;33.60;90.30
18339;DHT22;9295;44.484;11.240;2023-06-22T11:57:03;33.60;90.50
18339;DHT22;9295;44.484;11.240;2023-06-22T11:59:32;33.50;90.40
18339;DHT22;9295;44.484;11.240;2023-06-22T12:02:01;33.60;90.70
18339;DHT22;9295;44.484;11.240;2023-06-22T12:04:29;33.60;90.30
18339;DHT22;9295;44.484;11.240;2023-06-22T12:06:59;33.60;90.40
18339;DHT22;9295;44.484;11.240;2023-06-22T12:09:28;33.60;89.90
18339;DHT22;9295;44.484;11.240;2023-06-22T12:11:57;33.60;90.40
18339;DHT22;9295;44.484;11.240;2023-06-22T12:14:25;33.40;90.80
18339;DHT22;9295;44.484;11.240;2023-06-22T12:16:56;33.50;90.20
18339;DHT22;9295;44.484;11.240;2023-06-22T12:19:25;33.50;90.40
18339;DHT22;9295;44.484;11.240;2023-06-22T12:21:54;33.50;90.40
18339;DHT22;9295;44.484;11.240;2023-06-22T12:24:23;33.70;89.60
18339;DHT22;9295;44.484;11.240;2023-06-22T12:26:52;33.70;90.20
18339;DHT22;9295;44.484;11.240;2023-06-22T12:29:22;33.70;89.60
18339;DHT22;9295;44.484;11.240;2023-06-22T12:31:51;33.80;90.40
18339;DHT22;9295;44.484;11.240;2023-06-22T12:34:20;33.90;90.20
18339;DHT22;9295;44.484;11.240;2023-06-22T12:36:48;33.90;90.20
18339;DHT22;9295;44.484;11.240;2023-06-22T12:39:17;33.80;90.10
18339;DHT22;9295;44.484;11.240;2023-06-22T12:41:47;33.80;90.30
18339;DHT22;9295;44.484;11.240;2023-06-22T12:44:16;33.80;90.20
18339;DHT22;9295;44.484;11.240;2023-06-22T12:46:45;33.80;90.20
18339;DHT22;9295;44.484;11.240;2023-06-22T12:49:14;33.80;90.20
18339;DHT22;9295;44.484;11.240;2023-06-22T12:51:43;33.90;90.20
18339;DHT22;9295;44.484;11.240;2023-06-22T12:54:12;33.90;89.80
18339;DHT22;9295;44.484;11.240;2023-06-22T12:56:41;33.80;90.00
18339;DHT22;9295;44.484;11.240;2023-06-22T12:59:13;33.80;90.30
18339;DHT22;9295;44.484;11.240;2023-06-22T13:01:41;33.80;90.90
18339;DHT22;9295;44.484;11.240;2023-06-22T13:04:11;33.80;90.70
18339;DHT22;9295;44.484;11.240;2023-06-22T13:06:41;33.90;91.10
18339;DHT22;9295;44.484;11.240;2023-06-22T13:09:10;34.00;90.90
18339;DHT22;9295;44.484;11.240;2023-06-22T13:11:42;34.00;90.70
18339;DHT22;9295;44.484;11.240;2023-06-22T13:14:13;34.00;90.80
18339;DHT22;9295;44.484;11.240;2023-06-22T13:16:43;34.10;90.10
18339;DHT22;9295;44.484;11.240;2023-06-22T13:19:12;34.20;90.40
18339;DHT22;9295;44.484;11.240;2023-06-22T13:21:40;34.10;90.60
18339;DHT22;9295;44.484;11.240;2023-06-22T13:24:09;34.20;90.70
18339;DHT22;9295;44.484;11.240;2023-06-22T13:26:38;34.30;90.60
18339;DHT22;9295;44.484;11.240;2023-06-22T13:29:06;34.10;90.60
18339;DHT22;9295;44.484;11.240;2023-06-22T13:31:37;34.00;90.80
18339;DHT22;9295;44.484;11.240;2023-06-22T13:34:06;33.90;90.60
18339;DHT22;9295;44.484;11.240;2023-06-22T13:36:34;33.80;90.60
18339;DHT22;9295;44.484;11.240;2023-06-22T13:39:03;33.80;90.70
18339;DHT22;9295;44.484;11.240;2023-06-22T13:41:32;33.90;90.70
18339;DHT22;9295;44.484;11.240;2023-06-22T13:44:00;34.00;90.70
18339;DHT22;9295;44.484;11.240;2023-06-22T13:46:29;34.00;90.20
18339;DHT22;9295;44.484;11.240;2023-06-22T13:48:59;34.00;90.10
18339;DHT22;9295;44.484;11.240;2023-06-22T13:51:27;34.10;90.20
18339;DHT22;9295;44.484;11.240;2023-06-22T13:53:56;34.00;89.40
18339;DHT22;9295;44.484;11.240;2023-06-22T13:56:25;34.10;88.80
18339;DHT22;9295;44.484;11.240;2023-06-22T13:58:53;34.10;88.30
18339;DHT22;9295;44.484;11.240;2023-06-22T14:01:22;34.20;88.20
18339;DHT22;9295;44.484;11.240;2023-06-22T14:03:51;34.20;88.50
18339;DHT22;9295;44.484;11.240;2023-06-22T14:06:21;34.10;88.20
18339;DHT22;9295;44.484;11.240;2023-06-22T14:08:50;34.10;88.50
18339;DHT22;9295;44.484;11.240;2023-06-22T14:11:19;34.10;88.90
18339;DHT22;9295;44.484;11.240;2023-06-22T14:13:48;34.00;89.20
18339;DHT22;9295;44.484;11.240;2023-06-22T14:16:17;34.00;89.10
18339;DHT22;9295;44.484;11.240;2023-06-22T14:18:47;34.20;86.90
18339;DHT22;9295;44.484;11.240;2023-06-22T14:21:27;34.40;87.20
18339;DHT22;9295;44.484;11.240;2023-06-22T14:23:56;34.30;87.60
18339;DHT22;9295;44.484;11.240;2023-06-22T14:26:24;34.10;88.30
18339;DHT22;9295;44.484;11.240;2023-06-22T14:28:53;34.00;89.70
18339;DHT22;9295;44.484;11.240;2023-06-22T14:31:24;34.10;89.80
18339;DHT22;9295;44.484;11.240;2023-06-22T14:33:52;34.10;90.30
18339;DHT22;9295;44.484;11.240;2023-06-22T14:36:25;34.10;90.70
18339;DHT22;9295;44.484;11.240;2023-06-22T14:39:03;34.20;90.50
18339;DHT22;9295;44.484;11.240;2023-06-22T14:41:33;34.20;90.60
18339;DHT22;9295;44.484;11.240;2023-06-22T14:44:02;34.20;90.90
18339;DHT22;9295;44.484;11.240;2023-06-22T14:46:31;34.20;91.10
18339;DHT22;9295;44.484;11.240;2023-06-22T14:49:00;34.20;91.80
18339;DHT22;9295;44.484;11.240;2023-06-22T14:51:29;34.20;91.70
18339;DHT22;9295;44.484;11.240;2023-06-22T14:53:58;34.20;91.50
18339;DHT22;9295;44.484;11.240;2023-06-22T14:56:28;34.20;91.60
18339;DHT22;9295;44.484;11.240;2023-06-22T14:58:58;34.20;91.80
18339;DHT22;9295;44.484;11.240;2023-06-22T15:01:27;34.30;92.10
18339;DHT22;9295;44.484;11.240;2023-06-22T15:03:56;34.20;92.40
18339;DHT22;9295;44.484;11.240;2023-06-22T15:06:26;34.30;92.90
18339;DHT22;9295;44.484;11.240;2023-06-22T15:08:55;34.30;93.40
18339;DHT22;9295;44.484;11.240;2023-06-22T15:11:24;34.60;93.80
18339;DHT22;9295;44.484;11.240;2023-06-22T15:13:58;34.80;94.50
18339;DHT22;9295;44.484;11.240;2023-06-22T15:16:27;35.10;94.20
18339;DHT22;9295;44.484;11.240;2023-06-22T15:18:56;35.30;93.30
18339;DHT22;9295;44.484;11.240;2023-06-22T15:21:25;35.60;92.80
18339;DHT22;9295;44.484;11.240;2023-06-22T15:23:54;35.80;92.50
18339;DHT22;9295;44.484;11.240;2023-06-22T15:26:22;35.80;91.20
18339;DHT22;9295;44.484;11.240;2023-06-22T15:28:52;35.90;91.20
18339;DHT22;9295;44.484;11.240;2023-06-22T15:31:24;36.00;91.20
18339;DHT22;9295;44.484;11.240;2023-06-22T15:33:53;36.00;92.10
18339;DHT22;9295;44.484;11.240;2023-06-22T15:36:22;36.10;93.20
18339;DHT22;9295;44.484;11.240;2023-06-22T15:38:51;36.00;94.20
18339;DHT22;9295;44.484;11.240;2023-06-22T15:41:20;35.90;94.50
18339;DHT22;9295;44.484;11.240;2023-06-22T15:43:50;35.80;95.20
18339;DHT22;9295;44.484;11.240;2023-06-22T15:46:18;35.80;95.20